LFPOLFTH

Guest
Details From LFPO - Paris Orly
To LFTH - Le Palyvestre Navy
Flight Number -
Tags Generated
Created
Modified
Stats Distance 372 nm / 689 km
Max Altitude 0 ft / 0 m
Waypoints 3
Social Downloads 1
Likes 0
Share VATSIM

Download

Looking for another format? Having issues loading an existing format? Contact us
Advertisement - Login to hide

Notes

Generated

Route

LFPO TURIL LFTH

ID Type Via Altitude Latitude Longitude Leg Dist Tot Dist Heading (true) Name
O LFPO APT - 0 ft / 0 m 48.71772˚ 2.37681˚ - 0 nm - -
TURIL FIX - 0 ft / 0 m 43.22667˚ 6.02389˚ 363 nm 363 nm 154° / 157° -
O LFTH APT - 0 ft / 0 m 43.10192˚ 6.13980˚ 9 nm 372 nm 146° / 146° -

Altitude Profile

Advertisement - Login to hide

Weather


0- 5 10 15 20 25 30 35+ Temperature / ° C

Clouds and Precipitation
Forecast for 2017-12-14 18:00 UTC. Updated 9 minutes ago

Ground ~20,000 ft ~40,000 ft Winds

LFPO

Details ICAO LFPO (ORY)
Name Paris Orly
Region France
Timezone Europe/Paris (UTC+1.0)
Stats Elevation 291 ft / 89 m (AMSL)
Location 48.726360° 2.367029°
Runways 3
Magnetic Variation 0.600° E

METAR

LFPO 141500Z 23011KT 9999 -SHRA SCT023 BKN043 07/04 Q0996 TEMPO 24015G35KT 4000 SHRA BKN025TCU

Decode

TAF

TAF LFPO 141100Z 1412/1518 24013KT 9999 SCT030 TEMPO 1412/1421 24017G30KT 4000 SHRA BKN025TCU PROB30 TEMPO 1414/1418 24020G37KT 2000 TSGS BKN025CB TEMPO 1421/1506 SCT025TCU TEMPO 1506/1518 24015G27KT 4000 SHRA BKN012 BKN025TCU PROB30 TEMPO 1510/1517 2000 TSGS BKN025CB

Decode

Departure Runways

ID Width Length Bearing (true) Bearing (mag) Surface Threshold Offset Overrun Length
02 197 ft / 60 m 7,873 ft / 2,400 m 18.29° 17.69° Concrete 0 ft / 0 m 0 ft / 0 m
06 148 ft / 45 m 11,952 ft / 3,643 m 61.78° 61.18° Asphalt 984 ft / 300 m 197 ft / 60 m
08 148 ft / 45 m 10,868 ft / 3,313 m 74.36° 73.76° Concrete 0 ft / 0 m 1,050 ft / 320 m
20 197 ft / 60 m 7,873 ft / 2,400 m 198.30° 197.70° Concrete 0 ft / 0 m 0 ft / 0 m
24 148 ft / 45 m 11,952 ft / 3,643 m 241.81° 241.21° Asphalt 0 ft / 0 m 197 ft / 60 m
26 148 ft / 45 m 10,868 ft / 3,313 m 254.39° 253.79° Concrete 1,427 ft / 435 m 0 ft / 0 m

LFTH

Details ICAO LFTH (TLN)
Name Le Palyvestre Navy
Region France
Timezone Europe/Paris (UTC+1.0)
Stats Elevation 6 ft / 2 m (AMSL)
Location 43.098120° 6.149761°
Runways 2
Magnetic Variation 1.772° E

METAR

LFTH 141500Z AUTO 26016KT CAVOK 15/07 Q1011 BECMG 26015G25KT

Decode

TAF

TAF LFTH 141400Z 1415/1515 26015G25KT CAVOK

Decode

Destination Runways

ID Width Length Bearing (true) Bearing (mag) Surface Threshold Offset Overrun Length
05 148 ft / 45 m 6,956 ft / 2,120 m 51.12° 49.35° Concrete 722 ft / 220 m 361 ft / 110 m
14 164 ft / 50 m 6,302 ft / 1,921 m 135.18° 133.41° Concrete 951 ft / 290 m 0 ft / 0 m
23 148 ft / 45 m 6,956 ft / 2,120 m 231.13° 229.36° Concrete 0 ft / 0 m 141 ft / 43 m
32 164 ft / 50 m 6,302 ft / 1,921 m 315.20° 313.43° Concrete 295 ft / 90 m 443 ft / 135 m

Popular Alternatives